Time;durP1;ratioP1;P1;durP2;ratioP2;P2;SDS_P1;SDS_P2;PMS_P1;PMS_P2;Temp;Humidity;BMP_temperature;BMP_pressure;BME280_temperature;BME280_humidity;BME280_pressure;Samples;Min_cycle;Max_cycle;Signal;HPM_P1;HPM_P2
2022/12/07 00:00:54;;;;;;;;;;;;;;;10.98;42.68;99020.53;4515160;31;33756;-88
2022/12/07 00:03:21;;;;;;;;;;;;;;;10.94;42.64;99017.06;4515105;31;32998;-92
2022/12/07 00:05:49;;;;;;;;;;;;;;;10.79;42.76;99021.22;4515101;31;34154;-92
2022/12/07 00:08:16;;;;;;;;;;;;;;;11.02;42.34;99021.44;4515214;31;35219;-87
2022/12/07 00:10:43;;;;;;;;;;;;;;;11.05;42.46;99017.16;4515238;31;34545;-86
2022/12/07 00:13:10;;;;;;;;;;;;;;;11.16;42.41;99014.66;4514493;31;33347;-84
2022/12/07 00:15:38;;;;;;;;;;;;;;;11.00;42.45;99012.78;4514849;31;34176;-88
2022/12/07 00:18:05;;;;;;;;;;;;;;;10.88;42.47;99003.19;4500903;31;35217;-89
2022/12/07 00:20:33;;;;;;;;;;;;;;;11.16;41.99;98993.91;4499132;31;34241;-88
2022/12/07 00:23:00;;;;;;;;;;;;;;;11.16;41.87;98989.56;4508629;31;33264;-86
2022/12/07 00:25:27;;;;;;;;;;;;;;;10.83;42.46;99000.53;4514545;31;33989;-85
2022/12/07 00:27:56;;;;;;;;;;;;;;;10.64;43.10;98994.31;4515101;31;34581;-91
2022/12/07 00:30:23;;;;;;;;;;;;;;;10.96;42.62;98997.19;4514731;31;34240;-84
2022/12/07 00:32:51;;;;;;;;;;;;;;;11.20;42.11;98983.53;4514716;31;34078;-84
2022/12/07 00:35:18;;;;;;;;;;;;;;;11.08;42.20;98991.25;4514491;31;34382;-83
2022/12/07 00:37:45;;;;;;;;;;;;;;;11.12;42.23;98986.94;4514392;31;34553;-85
2022/12/07 00:40:12;;;;;;;;;;;;;;;11.26;41.79;98987.91;4514499;31;33882;-87
2022/12/07 00:42:40;;;;;;;;;;;;;;;11.17;41.82;98988.72;4514442;31;33937;-89
2022/12/07 00:45:07;;;;;;;;;;;;;;;11.45;41.34;98982.00;4514409;31;33943;-86
2022/12/07 00:47:34;;;;;;;;;;;;;;;11.49;41.37;98985.47;4514755;31;35699;-86
2022/12/07 00:50:02;;;;;;;;;;;;;;;11.55;41.36;98989.81;4514558;31;34760;-90
2022/12/07 00:52:29;;;;;;;;;;;;;;;11.17;41.99;98988.72;4514363;31;33806;-90
2022/12/07 00:54:57;;;;;;;;;;;;;;;11.04;42.71;98988.63;4513174;31;34622;-92
2022/12/07 00:57:24;;;;;;;;;;;;;;;11.08;42.72;98986.06;4513899;31;34867;-90
2022/12/07 00:59:57;;;;;;;;;;;;;;;11.10;42.74;98981.75;4513336;31;34123;-93
2022/12/07 01:02:25;;;;;;;;;;;;;;;11.25;42.39;98983.59;4514394;31;32735;-92
2022/12/07 01:04:52;;;;;;;;;;;;;;;11.20;42.44;98983.53;4514077;31;34009;-92
2022/12/07 01:07:19;;;;;;;;;;;;;;;11.19;42.42;98987.00;4514211;31;34318;-90
2022/12/07 01:09:46;;;;;;;;;;;;;;;11.23;42.24;98977.50;4513467;31;33973;-85
2022/12/07 01:12:14;;;;;;;;;;;;;;;11.35;42.07;98974.13;4514230;31;33114;-86
2022/12/07 01:14:41;;;;;;;;;;;;;;;11.56;41.27;98979.47;4513838;31;33782;-89
2022/12/07 01:17:08;;;;;;;;;;;;;;;11.26;41.51;98982.72;4503918;31;35039;-92
2022/12/07 01:19:36;;;;;;;;;;;;;;;11.10;41.77;98967.88;4509677;31;34891;-93
2022/12/07 01:22:03;;;;;;;;;;;;;;;11.28;41.49;98968.03;4513562;31;33075;-87
2022/12/07 01:24:30;;;;;;;;;;;;;;;11.30;41.58;98975.84;4513605;31;34888;-92
2022/12/07 01:26:57;;;;;;;;;;;;;;;11.42;41.08;98974.19;4515628;31;34369;-88
2022/12/07 01:29:24;;;;;;;;;;;;;;;11.24;41.18;98975.78;4515815;31;34212;-88
2022/12/07 01:31:52;;;;;;;;;;;;;;;11.06;41.61;98973.91;4515996;31;33561;-93
2022/12/07 01:34:19;;;;;;;;;;;;;;;11.26;41.38;98972.34;4516258;31;34216;-85
2022/12/07 01:36:46;;;;;;;;;;;;;;;11.01;41.93;98968.69;4516027;31;35217;-85
2022/12/07 01:39:14;;;;;;;;;;;;;;;11.24;41.78;98965.41;4515918;31;34112;-92
2022/12/07 01:41:43;;;;;;;;;;;;;;;11.19;41.45;98976.62;4515595;31;33266;-92
2022/12/07 01:44:21;;;;;;;;;;;;;;;10.67;42.75;98977.91;4515104;31;34252;-86
2022/12/07 01:46:49;;;;;;;;;;;;;;;10.70;43.18;98981.41;4515856;31;34136;-86
2022/12/07 01:49:28;;;;;;;;;;;;;;;11.13;42.59;98978.28;4515906;31;34086;-85
2022/12/07 01:51:58;;;;;;;;;;;;;;;11.05;42.84;98970.47;4504650;31;33310;-91
2022/12/07 01:54:25;;;;;;;;;;;;;;;10.99;43.34;98969.56;4501020;31;33962;-90
2022/12/07 01:56:53;;;;;;;;;;;;;;;11.19;43.17;98963.66;4506483;31;34402;-88
2022/12/07 01:59:21;;;;;;;;;;;;;;;11.33;43.01;98960.28;4515895;31;34335;-86
2022/12/07 02:01:49;;;;;;;;;;;;;;;11.45;42.78;98956.03;4515873;31;33003;-89
2022/12/07 02:04:16;;;;;;;;;;;;;;;11.33;42.96;98955.09;4515422;31;34350;-93
2022/12/07 02:06:43;;;;;;;;;;;;;;;11.46;42.74;98949.09;4515021;31;34897;-91
2022/12/07 02:09:11;;;;;;;;;;;;;;;11.56;42.47;98956.09;4512975;31;34830;-83
2022/12/07 02:11:39;;;;;;;;;;;;;;;11.44;42.77;98953.44;4508459;31;33496;-83
2022/12/07 02:14:06;;;;;;;;;;;;;;;11.76;42.28;98950.13;4508312;31;33983;-88
2022/12/07 02:17:03;;;;;;;;;;;;;;;11.78;42.12;98949.28;4515797;31;34277;-86
2022/12/07 02:19:49;;;;;;;;;;;;;;;11.51;42.79;98954.31;4502209;31;33556;-84
2022/12/07 02:22:22;;;;;;;;;;;;;;;11.83;42.21;98955.38;4515042;31;33417;-88
2022/12/07 02:24:54;;;;;;;;;;;;;;;11.72;42.46;98958.78;4515984;31;34148;-85
2022/12/07 02:27:24;;;;;;;;;;;;;;;11.57;42.92;98954.38;4512772;31;35240;-90
2022/12/07 02:29:54;;;;;;;;;;;;;;;11.46;43.20;98962.09;4515598;31;34183;-85
2022/12/07 02:32:23;;;;;;;;;;;;;;;11.72;42.81;98953.56;4515948;31;32989;-85
2022/12/07 02:34:52;;;;;;;;;;;;;;;11.69;43.08;98950.09;4513890;31;33754;-92
2022/12/07 02:37:38;;;;;;;;;;;;;;;11.87;42.70;98953.69;4499216;31;34313;-90
2022/12/07 02:40:19;;;;;;;;;;;;;;;11.82;42.81;98955.34;4509070;31;34103;-92
2022/12/07 02:42:49;;;;;;;;;;;;;;;11.51;43.48;98954.31;4506770;31;33775;-91
2022/12/07 02:45:17;;;;;;;;;;;;;;;11.70;43.43;98948.34;4498317;31;34882;-90
2022/12/07 02:47:45;;;;;;;;;;;;;;;11.61;43.64;98951.78;4498621;31;34243;-92
2022/12/07 02:50:13;;;;;;;;;;;;;;;11.58;43.99;98946.56;4510100;31;34862;-93
2022/12/07 02:52:40;;;;;;;;;;;;;;;11.73;43.71;98947.50;4513993;31;34033;-90
2022/12/07 02:55:07;;;;;;;;;;;;;;;11.83;43.45;98951.91;4515523;31;33494;-84
2022/12/07 02:57:38;;;;;;;;;;;;;;;11.82;43.55;98944.94;4508001;31;34617;-83
2022/12/07 03:00:06;;;;;;;;;;;;;;;11.95;43.37;98943.31;4515409;31;35091;-84
2022/12/07 03:02:46;;;;;;;;;;;;;;;11.98;43.32;98938.12;4514710;31;33181;-90
2022/12/07 03:05:43;;;;;;;;;;;;;;;12.22;42.96;98945.12;4515388;31;34180;-92
2022/12/07 03:08:15;;;;;;;;;;;;;;;12.04;43.11;98933.81;4502151;31;34148;-88
2022/12/07 03:10:45;;;;;;;;;;;;;;;11.89;43.50;98944.16;4509934;31;35066;-85
2022/12/07 03:13:19;;;;;;;;;;;;;;;12.06;43.22;98947.69;4507232;31;33456;-92
2022/12/07 03:15:47;;;;;;;;;;;;;;;12.16;43.00;98938.19;4515368;31;34904;-86
2022/12/07 03:18:16;;;;;;;;;;;;;;;12.38;42.59;98941.69;4502450;31;33676;-92
2022/12/07 03:20:43;;;;;;;;;;;;;;;12.27;42.81;98933.00;4503816;31;33910;-85
2022/12/07 03:23:10;;;;;;;;;;;;;;;12.30;42.86;98930.41;4514011;31;34367;-89
2022/12/07 03:25:41;;;;;;;;;;;;;;;12.06;43.50;98919.09;4515613;31;34331;-91
2022/12/07 03:28:08;;;;;;;;;;;;;;;12.04;43.67;98926.00;4503743;31;33811;-88
2022/12/07 03:30:54;;;;;;;;;;;;;;;12.35;43.39;98923.47;4500904;31;33820;-85
2022/12/07 03:33:22;;;;;;;;;;;;;;;12.50;43.08;98926.13;4515697;31;32554;-92
2022/12/07 03:35:52;;;;;;;;;;;;;;;12.51;43.05;98924.41;4513813;31;33930;-89
2022/12/07 03:38:20;;;;;;;;;;;;;;;12.58;42.86;98933.94;4502436;31;35157;-89
2022/12/07 03:40:52;;;;;;;;;;;;;;;12.67;42.64;98926.13;4499910;31;33895;-83
2022/12/07 03:43:19;;;;;;;;;;;;;;;12.64;42.67;98926.97;4514018;31;33223;-85
2022/12/07 03:46:05;;;;;;;;;;;;;;;12.69;42.73;98931.31;4513923;31;34256;-85
2022/12/07 03:48:37;;;;;;;;;;;;;;;12.60;42.85;98938.25;4513702;31;34035;-91
2022/12/07 03:51:04;;;;;;;;;;;;;;;12.56;42.86;98935.66;4507605;31;34391;-91
2022/12/07 03:53:39;;;;;;;;;;;;;;;12.41;43.31;98939.97;4499243;31;33412;-84
2022/12/07 03:56:08;;;;;;;;;;;;;;;12.50;43.23;98940.84;4498169;31;34825;-90
2022/12/07 03:58:36;;;;;;;;;;;;;;;12.46;43.47;98945.16;4513725;31;34207;-92
2022/12/07 04:01:03;;;;;;;;;;;;;;;12.43;43.54;98933.91;4509818;31;33639;-85
2022/12/07 04:03:31;;;;;;;;;;;;;;;12.15;44.27;98939.91;4513567;31;33367;-92
2022/12/07 04:05:58;;;;;;;;;;;;;;;12.44;43.59;98933.91;4515380;31;34195;-85
2022/12/07 04:08:25;;;;;;;;;;;;;;;12.23;44.09;98945.12;4514868;31;35323;-91
2022/12/07 04:10:53;;;;;;;;;;;;;;;12.39;43.75;98946.91;4514877;31;34059;-92
2022/12/07 04:13:20;;;;;;;;;;;;;;;12.34;43.89;98946.00;4513786;31;33510;-85
2022/12/07 04:15:47;;;;;;;;;;;;;;;12.01;44.78;98941.63;4514868;31;34469;-92
2022/12/07 04:18:15;;;;;;;;;;;;;;;12.42;44.08;98935.63;4514453;31;35231;-87
2022/12/07 04:20:42;;;;;;;;;;;;;;;12.45;44.03;98933.03;4514908;31;33938;-88
2022/12/07 04:23:09;;;;;;;;;;;;;;;12.56;43.52;98936.53;4514743;31;33403;-91
2022/12/07 04:25:36;;;;;;;;;;;;;;;12.28;44.25;98939.97;4515103;31;34105;-85
2022/12/07 04:28:03;;;;;;;;;;;;;;;12.52;43.71;98933.91;4514731;31;34517;-90
2022/12/07 04:30:31;;;;;;;;;;;;;;;12.51;43.85;98935.66;4514525;31;34819;-91
2022/12/07 04:32:58;;;;;;;;;;;;;;;12.55;43.84;98944.34;4514827;31;34193;-92
2022/12/07 04:35:25;;;;;;;;;;;;;;;11.69;45.74;98944.03;4515369;31;34280;-93
2022/12/07 04:37:52;;;;;;;;;;;;;;;11.81;45.37;98943.22;4514191;31;34433;-93
2022/12/07 04:40:20;;;;;;;;;;;;;;;12.13;43.95;98941.66;4514638;31;33930;-91
2022/12/07 04:42:47;;;;;;;;;;;;;;;12.06;44.40;98945.09;4514736;31;33563;-92
2022/12/07 04:45:14;;;;;;;;;;;;;;;12.04;44.60;98941.59;4514698;31;33952;-93
2022/12/07 04:47:42;;;;;;;;;;;;;;;11.37;46.25;98944.75;4514013;31;35222;-85
2022/12/07 04:50:09;;;;;;;;;;;;;;;11.15;46.96;98956.69;4514505;31;34795;-91
2022/12/07 04:52:36;;;;;;;;;;;;;;;11.27;46.57;98952.47;4514347;31;34218;-88
2022/12/07 04:55:04;;;;;;;;;;;;;;;11.55;46.25;98951.75;4514690;31;33979;-86
2022/12/07 04:57:31;;;;;;;;;;;;;;;11.86;45.03;98949.34;4514133;31;34989;-88
2022/12/07 04:59:58;;;;;;;;;;;;;;;11.53;45.79;98963.00;4515304;31;34933;-90
2022/12/07 05:02:26;;;;;;;;;;;;;;;11.07;46.93;98960.97;4516497;31;33534;-90
2022/12/07 05:04:53;;;;;;;;;;;;;;;10.79;47.63;98956.41;4516734;31;34281;-92
2022/12/07 05:07:20;;;;;;;;;;;;;;;10.91;47.52;98961.69;4516253;31;34539;-90
2022/12/07 05:09:48;;;;;;;;;;;;;;;11.26;46.75;98963.69;4517025;31;34054;-91
2022/12/07 05:12:15;;;;;;;;;;;;;;;11.24;45.69;98960.22;4515513;31;31998;-88
2022/12/07 05:14:42;;;;;;;;;;;;;;;10.82;47.69;98961.62;4515612;31;34238;-91
2022/12/07 05:17:11;;;;;;;;;;;;;;;11.03;47.19;98955.75;4515986;31;35192;-91
2022/12/07 05:19:38;;;;;;;;;;;;;;;10.98;47.08;98960.03;4516245;31;34712;-85
2022/12/07 05:22:05;;;;;;;;;;;;;;;11.47;45.90;98948.25;4516686;31;34287;-90
2022/12/07 05:24:33;;;;;;;;;;;;;;;11.49;46.06;98943.94;4516008;31;33512;-87
2022/12/07 05:27:00;;;;;;;;;;;;;;;11.71;45.67;98954.44;4504621;31;34388;-88
2022/12/07 05:29:27;;;;;;;;;;;;;;;12.04;45.08;98946.78;4515860;31;34139;-91
2022/12/07 05:31:54;;;;;;;;;;;;;;;11.94;45.22;98945.06;4515359;31;33077;-90
2022/12/07 05:34:22;;;;;;;;;;;;;;;12.10;44.99;98941.63;4515667;31;34930;-91
2022/12/07 05:36:50;;;;;;;;;;;;;;;12.24;44.70;98938.22;4514692;31;34331;-91
2022/12/07 05:39:17;;;;;;;;;;;;;;;12.51;44.20;98930.47;4516083;31;33947;-90
2022/12/07 05:44:31;;;;;;;;;;;;;;;12.81;43.52;98931.34;4516070;31;34096;-89
2022/12/07 05:46:58;;;;;;;;;;;;;;;12.43;44.16;98934.78;4515933;31;34253;-91
2022/12/07 05:49:25;;;;;;;;;;;;;;;12.49;44.20;98939.97;4516002;31;34768;-89
2022/12/07 05:51:52;;;;;;;;;;;;;;;12.42;44.31;98938.22;4515084;31;33555;-88
2022/12/07 05:54:20;;;;;;;;;;;;;;;12.63;44.07;98940.87;4514732;31;35025;-92
2022/12/07 05:56:47;;;;;;;;;;;;;;;12.79;43.84;98938.28;4515629;31;34261;-86
2022/12/07 05:59:24;;;;;;;;;;;;;;;12.88;43.72;98938.28;4514452;31;33994;-88
2022/12/07 06:01:58;;;;;;;;;;;;;;;12.86;43.55;98940.00;4515594;31;33061;-87
2022/12/07 06:04:27;;;;;;;;;;;;;;;12.74;43.66;98937.41;4516004;31;34893;-86
2022/12/07 06:06:54;;;;;;;;;;;;;;;12.97;43.31;98950.41;4515751;31;34286;-93
2022/12/07 06:09:22;;;;;;;;;;;;;;;12.91;43.28;98940.87;4515613;31;34175;-91
2022/12/07 06:14:37;;;;;;;;;;;;;;;13.04;43.04;98947.81;4499687;31;34294;-91
2022/12/07 06:17:04;;;;;;;;;;;;;;;13.09;43.00;98938.25;4509031;31;34501;-88
2022/12/07 06:19:32;;;;;;;;;;;;;;;13.06;42.95;98943.44;4515536;31;33946;-88
2022/12/07 06:21:59;;;;;;;;;;;;;;;12.91;43.18;98939.13;4515689;31;33114;-90
2022/12/07 06:24:26;;;;;;;;;;;;;;;13.07;42.92;98944.34;4514706;31;34429;-90
2022/12/07 06:26:53;;;;;;;;;;;;;;;13.12;42.85;98946.06;4515199;31;34814;-90
2022/12/07 06:29:21;;;;;;;;;;;;;;;12.94;43.20;98947.81;4514481;31;33792;-90
2022/12/07 06:31:49;;;;;;;;;;;;;;;12.84;43.30;98946.94;4515649;31;34034;-90
2022/12/07 06:34:17;;;;;;;;;;;;;;;12.76;43.57;98959.94;4515859;31;34264;-88
2022/12/07 06:36:45;;;;;;;;;;;;;;;12.68;43.87;98950.41;4515662;31;33820;-91
2022/12/07 06:39:13;;;;;;;;;;;;;;;12.82;43.55;98946.94;4516052;31;34896;-90
2022/12/07 06:41:40;;;;;;;;;;;;;;;12.95;43.45;98950.41;4515681;31;33453;-94
2022/12/07 06:44:07;;;;;;;;;;;;;;;13.05;43.20;98951.28;4515048;31;34229;-87
2022/12/07 06:46:37;;;;;;;;;;;;;;;13.13;43.17;98954.72;4515281;31;34545;-86
2022/12/07 06:49:05;;;;;;;;;;;;;;;13.06;43.25;98953.88;4515629;31;34712;-89
2022/12/07 06:51:32;;;;;;;;;;;;;;;13.08;43.26;98965.16;4515302;31;33352;-88
2022/12/07 06:53:59;;;;;;;;;;;;;;;13.20;42.87;98966.00;4509615;31;34471;-88
2022/12/07 06:56:27;;;;;;;;;;;;;;;13.05;43.20;98961.69;4515786;31;35252;-87
2022/12/07 06:58:54;;;;;;;;;;;;;;;12.92;43.61;98966.03;4515405;31;34135;-86
2022/12/07 07:01:21;;;;;;;;;;;;;;;13.06;43.55;98969.47;4515661;31;33606;-87
2022/12/07 07:03:49;;;;;;;;;;;;;;;12.43;44.82;98968.59;4515707;31;34127;-86
2022/12/07 07:06:16;;;;;;;;;;;;;;;12.76;44.19;98967.75;4515346;31;34201;-89
2022/12/07 07:08:47;;;;;;;;;;;;;;;12.77;44.14;98971.22;4514688;31;34389;-87
2022/12/07 07:11:17;;;;;;;;;;;;;;;12.77;44.06;98969.50;4515467;31;34047;-87
2022/12/07 07:13:50;;;;;;;;;;;;;;;13.06;43.55;98964.28;4514910;31;35326;-91
2022/12/07 07:16:17;;;;;;;;;;;;;;;13.17;43.34;98960.81;4515064;31;33980;-90
2022/12/07 07:18:45;;;;;;;;;;;;;;;12.90;43.88;98962.56;4515340;31;33707;-86
2022/12/07 07:21:12;;;;;;;;;;;;;;;13.10;43.70;98968.59;4515461;31;33076;-90
2022/12/07 07:23:39;;;;;;;;;;;;;;;13.23;43.64;98971.22;4513989;31;33930;-90
2022/12/07 07:26:07;;;;;;;;;;;;;;;12.68;44.71;98966.88;4514904;31;34261;-87
2022/12/07 07:28:35;;;;;;;;;;;;;;;12.57;45.11;98973.78;4515999;31;34100;-90
2022/12/07 07:31:02;;;;;;;;;;;;;;;12.71;45.00;98974.69;4478435;31;32250;-88
2022/12/07 07:33:30;;;;;;;;;;;;;;;12.89;44.64;98972.09;4514276;31;34350;-91
2022/12/07 07:35:57;;;;;;;;;;;;;;;13.05;44.43;98972.97;4514635;31;34233;-89
2022/12/07 07:38:25;;;;;;;;;;;;;;;13.19;44.10;98974.69;4515148;31;34517;-90
2022/12/07 07:40:53;;;;;;;;;;;;;;;13.33;43.84;98975.56;4513611;31;32958;-87
2022/12/07 07:43:20;;;;;;;;;;;;;;;13.07;44.35;98970.38;4514920;31;34291;-90
2022/12/07 07:45:47;;;;;;;;;;;;;;;13.03;44.62;98969.50;4514770;31;34464;-89
2022/12/07 07:48:15;;;;;;;;;;;;;;;13.26;44.25;98966.91;4513999;31;34944;-91
2022/12/07 07:50:43;;;;;;;;;;;;;;;13.25;44.25;98972.97;4514600;31;32843;-84
2022/12/07 07:53:10;;;;;;;;;;;;;;;13.22;44.41;98969.47;4514464;31;34237;-86
2022/12/07 07:55:37;;;;;;;;;;;;;;;13.41;44.08;98972.94;4513858;31;34434;-89
2022/12/07 07:58:05;;;;;;;;;;;;;;;13.38;44.10;98974.69;4515075;31;34181;-89
2022/12/07 08:00:32;;;;;;;;;;;;;;;13.21;44.49;98972.94;4515163;31;34007;-91
2022/12/07 08:02:59;;;;;;;;;;;;;;;13.80;42.69;98974.59;4513632;31;33898;-87
2022/12/07 08:05:26;;;;;;;;;;;;;;;12.76;44.84;98972.06;4514680;31;34239;-89
2022/12/07 08:07:54;;;;;;;;;;;;;;;12.60;45.51;98973.81;4514368;31;34179;-90
2022/12/07 08:10:21;;;;;;;;;;;;;;;12.71;45.48;98974.69;4514966;31;33625;-88
2022/12/07 08:15:35;;;;;;;;;;;;;;;12.56;46.35;98982.47;4514765;31;35148;-89
2022/12/07 08:18:03;;;;;;;;;;;;;;;11.42;49.07;98986.28;4514744;31;34251;-92
2022/12/07 08:20:31;;;;;;;;;;;;;;;11.56;48.95;98987.25;4515258;31;33542;-91
2022/12/07 08:22:58;;;;;;;;;;;;;;;12.30;47.12;98985.88;4513526;31;35216;-86
2022/12/07 08:25:26;;;;;;;;;;;;;;;12.71;46.23;98986.81;4515329;31;34111;-91
2022/12/07 08:27:53;;;;;;;;;;;;;;;12.69;46.34;98985.94;4514901;31;33937;-91
2022/12/07 08:30:21;;;;;;;;;;;;;;;13.03;45.60;98986.81;4514654;31;34269;-91
2022/12/07 08:32:48;;;;;;;;;;;;;;;13.09;45.43;98979.91;4515003;31;34320;-89
2022/12/07 08:35:16;;;;;;;;;;;;;;;13.13;45.28;98989.44;4514217;31;34463;-91
2022/12/07 08:37:43;;;;;;;;;;;;;;;12.78;45.96;98984.22;4514702;31;34875;-89
2022/12/07 08:40:14;;;;;;;;;;;;;;;12.19;47.31;98990.16;4515051;31;33487;-92
2022/12/07 08:42:44;;;;;;;;;;;;;;;12.51;46.77;98985.06;4485236;31;888217;-92
2022/12/07 08:45:12;;;;;;;;;;;;;;;12.48;46.66;98990.25;4514736;31;34721;-90
2022/12/07 08:47:44;;;;;;;;;;;;;;;11.89;48.05;98996.09;4514922;31;33823;-90
2022/12/07 08:50:12;;;;;;;;;;;;;;;12.02;46.95;98986.66;4513544;31;34070;-93
2022/12/07 08:52:39;;;;;;;;;;;;;;;11.69;48.37;98995.97;4514631;31;34246;-89
2022/12/07 08:55:07;;;;;;;;;;;;;;;10.98;50.47;99004.13;4514608;31;35065;-88
2022/12/07 08:57:34;;;;;;;;;;;;;;;11.43;49.23;98998.41;4513342;31;33559;-92
2022/12/07 09:00:02;;;;;;;;;;;;;;;12.39;46.63;98992.84;4514321;31;33074;-91
2022/12/07 09:02:30;;;;;;;;;;;;;;;11.79;48.79;98994.31;4514687;31;35079;-92
2022/12/07 09:04:58;;;;;;;;;;;;;;;11.79;48.38;98995.16;4514517;31;33739;-87
2022/12/07 09:07:25;;;;;;;;;;;;;;;12.12;47.68;98991.00;4514210;31;33735;-91
2022/12/07 09:09:52;;;;;;;;;;;;;;;11.55;49.53;99001.06;4514426;31;33482;-86
2022/12/07 09:12:20;;;;;;;;;;;;;;;11.82;48.93;98995.19;4514222;31;34628;-92
2022/12/07 09:14:47;;;;;;;;;;;;;;;12.45;47.24;98998.03;4514051;31;34322;-92
2022/12/07 09:17:14;;;;;;;;;;;;;;;11.74;48.98;98996.84;4514257;31;34148;-91
2022/12/07 09:19:42;;;;;;;;;;;;;;;10.80;51.56;98997.06;4514166;31;33213;-92
2022/12/07 09:22:09;;;;;;;;;;;;;;;10.68;52.16;98993.50;4513673;31;35134;-92
2022/12/07 09:24:36;;;;;;;;;;;;;;;10.70;52.23;98994.37;4514120;31;34352;-86
2022/12/07 09:27:04;;;;;;;;;;;;;;;11.44;50.32;98992.38;4513956;31;34833;-89
2022/12/07 09:29:31;;;;;;;;;;;;;;;11.15;51.01;98986.97;4512566;31;34260;-89
2022/12/07 09:31:58;;;;;;;;;;;;;;;10.61;52.01;98993.44;4514295;31;34127;-89
2022/12/07 09:34:26;;;;;;;;;;;;;;;11.04;51.15;98986.87;4513938;31;34204;-86
2022/12/07 09:36:53;;;;;;;;;;;;;;;10.29;52.57;98996.53;4513674;31;33757;-91
2022/12/07 09:39:20;;;;;;;;;;;;;;;11.06;51.01;98982.59;4513811;31;33985;-91
2022/12/07 09:41:48;;;;;;;;;;;;;;;11.14;51.03;98975.72;4513979;31;33863;-90
2022/12/07 09:44:21;;;;;;;;;;;;;;;11.76;48.88;98974.38;4513567;31;35212;-86
2022/12/07 09:46:50;;;;;;;;;;;;;;;12.15;47.57;98978.88;4513439;31;34969;-87
2022/12/07 09:49:18;;;;;;;;;;;;;;;11.32;49.45;98977.56;4516234;31;33557;-92
2022/12/07 09:51:45;;;;;;;;;;;;;;;10.92;50.04;98979.00;4515803;31;35056;-93
2022/12/07 09:54:13;;;;;;;;;;;;;;;11.83;48.48;98970.97;4514813;31;34196;-91
2022/12/07 09:56:40;;;;;;;;;;;;;;;10.37;51.83;98978.47;4514673;31;33924;-90
2022/12/07 09:59:17;;;;;;;;;;;;;;;11.19;50.24;98974.03;4516323;31;33321;-89
2022/12/07 10:01:46;;;;;;;;;;;;;;;11.26;50.00;98969.75;4514878;31;33706;-91
2022/12/07 10:04:21;;;;;;;;;;;;;;;10.92;51.25;98979.87;4514747;31;34132;-91
2022/12/07 10:06:50;;;;;;;;;;;;;;;10.92;50.58;98979.00;4514592;31;34095;-88
2022/12/07 10:09:19;;;;;;;;;;;;;;;10.85;50.76;98972.91;4515939;31;33607;-91
2022/12/07 10:11:58;;;;;;;;;;;;;;;10.68;50.90;98972.75;4514693;31;34884;-91
2022/12/07 10:14:27;;;;;;;;;;;;;;;10.59;51.22;98970.06;4515819;31;34049;-91
2022/12/07 10:17:35;;;;;;;;;;;;;;;11.81;48.06;98962.25;4515899;31;34534;-90
2022/12/07 10:20:11;;;;;;;;;;;;;;;11.11;49.64;98965.31;4515605;31;33495;-91
2022/12/07 10:22:38;;;;;;;;;;;;;;;11.80;48.49;98963.13;4515934;31;34832;-91
2022/12/07 10:25:09;;;;;;;;;;;;;;;12.25;47.15;98956.41;4515692;31;35053;-91
2022/12/07 10:27:36;;;;;;;;;;;;;;;10.15;51.63;98960.09;4514574;31;34734;-86
2022/12/07 10:30:07;;;;;;;;;;;;;;;10.83;50.27;98952.97;4515957;31;33994;-92
2022/12/07 10:32:35;;;;;;;;;;;;;;;11.29;49.90;98958.50;4514198;31;34097;-86
2022/12/07 10:35:31;;;;;;;;;;;;;;;11.63;49.08;98949.19;4515824;31;34412;-91
2022/12/07 10:37:59;;;;;;;;;;;;;;;11.18;49.48;98954.13;4502374;31;33247;-91
2022/12/07 10:40:29;;;;;;;;;;;;;;;11.18;49.91;98956.72;4514460;31;33440;-91
2022/12/07 10:43:02;;;;;;;;;;;;;;;11.06;49.19;98954.06;4515496;31;34669;-87
2022/12/07 10:45:29;;;;;;;;;;;;;;;10.28;51.71;98960.25;4515788;31;33906;-91
2022/12/07 10:48:15;;;;;;;;;;;;;;;11.24;49.66;98950.69;4514350;31;33829;-86
2022/12/07 10:50:52;;;;;;;;;;;;;;;11.72;48.30;98948.38;4515676;31;33404;-92
2022/12/07 10:53:38;;;;;;;;;;;;;;;11.90;48.49;98949.37;4515578;31;34347;-90
2022/12/07 10:56:08;;;;;;;;;;;;;;;12.27;47.00;98944.25;4514606;31;33922;-90
2022/12/07 10:58:38;;;;;;;;;;;;;;;11.92;47.64;98941.56;4515418;31;34311;-90
2022/12/07 11:01:21;;;;;;;;;;;;;;;11.25;48.61;98947.28;4515403;31;34252;-91
2022/12/07 11:04:07;;;;;;;;;;;;;;;11.84;47.04;98951.06;4514334;31;34679;-92
2022/12/07 11:06:36;;;;;;;;;;;;;;;11.64;47.48;98944.03;4515549;31;34372;-86
2022/12/07 11:09:16;;;;;;;;;;;;;;;12.29;45.93;98936.47;4514520;31;33817;-92
2022/12/07 11:11:43;;;;;;;;;;;;;;;12.40;46.07;98929.56;4514262;31;33295;-91
2022/12/07 11:14:42;;;;;;;;;;;;;;;12.04;45.94;98935.53;4515379;31;34361;-88
2022/12/07 11:17:14;;;;;;;;;;;;;;;11.55;46.60;98930.97;4480029;31;33684;-91
2022/12/07 11:20:01;;;;;;;;;;;;;;;12.26;45.26;98928.69;4514012;31;34203;-92
2022/12/07 11:22:35;;;;;;;;;;;;;;;12.55;44.70;98923.53;4514197;31;34133;-87
2022/12/07 11:25:13;;;;;;;;;;;;;;;12.61;44.72;98919.22;4515589;31;34668;-87
2022/12/07 11:27:44;;;;;;;;;;;;;;;11.43;47.12;98926.59;4514136;31;34266;-92
2022/12/07 11:30:20;;;;;;;;;;;;;;;12.31;44.69;98924.34;4514123;31;34853;-86
2022/12/07 11:32:57;;;;;;;;;;;;;;;11.16;46.49;98927.28;4513950;31;33312;-90
2022/12/07 11:35:35;;;;;;;;;;;;;;;10.92;47.73;98924.53;4514246;31;34221;-91
2022/12/07 11:38:08;;;;;;;;;;;;;;;10.77;47.86;98924.44;4514044;31;35177;-91
2022/12/07 11:40:35;;;;;;;;;;;;;;;11.85;45.42;98924.22;4514034;31;34044;-89
2022/12/07 11:43:06;;;;;;;;;;;;;;;10.92;48.32;98929.72;4514026;31;33257;-90
2022/12/07 11:45:34;;;;;;;;;;;;;;;12.13;45.27;98920.84;4515106;31;35124;-90
2022/12/07 11:48:02;;;;;;;;;;;;;;;11.90;45.18;98938.97;4513952;31;34421;-91
2022/12/07 11:50:32;;;;;;;;;;;;;;;11.32;46.07;98928.25;4513710;31;34723;-91
2022/12/07 11:52:59;;;;;;;;;;;;;;;11.23;47.00;98927.34;4515127;31;34280;-91
2022/12/07 11:55:27;;;;;;;;;;;;;;;10.59;48.33;98928.59;4515207;31;33937;-90
2022/12/07 11:58:03;;;;;;;;;;;;;;;11.53;45.64;98927.50;4514949;31;34494;-92
2022/12/07 12:00:31;;;;;;;;;;;;;;;11.54;45.72;98928.38;4514106;31;34331;-92
2022/12/07 12:03:00;;;;;;;;;;;;;;;10.87;47.52;98924.53;4513707;31;32830;-90
2022/12/07 12:05:28;;;;;;;;;;;;;;;11.81;45.69;98927.63;4513967;31;34072;-90
2022/12/07 12:08:15;;;;;;;;;;;;;;;12.09;44.38;98913.06;4515100;31;35130;-91
2022/12/07 12:11:18;;;;;;;;;;;;;;;11.59;45.86;98913.69;4513204;31;34058;-90
2022/12/07 12:13:51;;;;;;;;;;;;;;;12.33;43.79;98892.28;4514914;31;33094;-89
2022/12/07 12:16:51;;;;;;;;;;;;;;;11.74;45.45;98902.50;4514594;31;34912;-87
2022/12/07 12:19:32;;;;;;;;;;;;;;;11.75;45.67;98902.53;4514888;31;34341;-91
2022/12/07 12:22:09;;;;;;;;;;;;;;;11.05;45.71;98892.62;4513698;31;34154;-90
2022/12/07 12:24:36;;;;;;;;;;;;;;;11.50;45.16;98880.75;4515020;31;33055;-91
2022/12/07 12:27:05;;;;;;;;;;;;;;;11.17;46.09;98882.34;4514100;31;34224;-90
2022/12/07 12:29:41;;;;;;;;;;;;;;;11.95;44.38;98884.44;4513689;31;34321;-91
2022/12/07 12:32:17;;;;;;;;;;;;;;;12.02;43.63;98880.97;4514683;31;34041;-91
2022/12/07 12:34:47;;;;;;;;;;;;;;;12.04;43.83;98879.25;4513312;31;33448;-91
2022/12/07 12:37:32;;;;;;;;;;;;;;;12.16;43.90;98873.22;4514795;31;34885;-89
2022/12/07 12:40:27;;;;;;;;;;;;;;;12.03;43.85;98869.72;4514544;31;35371;-91
2022/12/07 12:42:55;;;;;;;;;;;;;;;11.60;44.42;98874.75;4513405;31;34211;-88
2022/12/07 12:45:25;;;;;;;;;;;;;;;12.21;44.01;98873.22;4513314;31;32987;-92
2022/12/07 12:47:54;;;;;;;;;;;;;;;11.56;44.54;98869.56;4514756;31;34202;-91
2022/12/07 12:50:31;;;;;;;;;;;;;;;12.22;43.53;98875.81;4514552;31;33784;-91
2022/12/07 12:53:00;;;;;;;;;;;;;;;12.57;42.99;98860.22;4513191;31;33880;-91
2022/12/07 12:55:42;;;;;;;;;;;;;;;12.18;43.85;98864.53;4513418;31;34058;-91
2022/12/07 12:58:19;;;;;;;;;;;;;;;12.79;42.15;98871.50;4514438;31;34140;-91
2022/12/07 13:00:47;;;;;;;;;;;;;;;12.34;42.38;98856.75;4514407;31;34499;-91
2022/12/07 13:03:25;;;;;;;;;;;;;;;12.61;42.29;98877.59;4514391;31;34069;-87
2022/12/07 13:06:12;;;;;;;;;;;;;;;13.14;41.17;98868.84;4514467;31;34734;-91
2022/12/07 13:08:40;;;;;;;;;;;;;;;10.24;46.00;98879.00;4514418;31;35106;-92
2022/12/07 13:11:17;;;;;;;;;;;;;;;11.49;44.58;98873.84;4513094;31;34414;-91